Weather at Berlin-Tegel Otto Lilienthal Airport [CLOSED]

Public forecast

Using degrees Celsius for public forecast. Weather courtesy of forecast.io.

Closest aviation weather report (METAR) to Berlin-Tegel Otto Lilienthal Airport

Closest report is Berlin Brandenburg Airport, 14.2 nm (26.3 km) SSE.

2023/01/30 01:50 (retrieved 19 minutes ago)

EDDB 300150Z AUTO 23016KT 9999 OVC017 01/M03 Q1011 NOSIG

Closest aviation forecast (TAF) to Berlin-Tegel Otto Lilienthal Airport

Closest forecast is Dortmund Airport, 218.7 nm (405.0 km) WSW.

2023/01/29 22:03 Ammendment (retrieved 4 hours ago)

TAF AMD TAF AMD EDLW 292250Z 2922/3018 CNL